Time;durP1;ratioP1;P1;durP2;ratioP2;P2;SDS_P1;SDS_P2;PMS_P1;PMS_P2;Temp;Humidity;BMP_temperature;BMP_pressure;BME280_temperature;BME280_humidity;BME280_pressure;Samples;Min_cycle;Max_cycle;Signal;HPM_P1;HPM_P2
2021/06/25 00:00:34;;;;;;;4.53;4.13;;;17.90;99.90;;;;;;5052165;28;20206;-77
2021/06/25 00:03:00;;;;;;;4.47;4.07;;;17.90;99.90;;;;;;5052318;28;20288;-76
2021/06/25 00:05:28;;;;;;;6.32;4.50;;;18.00;99.90;;;;;;5051586;28;20215;-75
2021/06/25 00:07:55;;;;;;;4.43;3.92;;;18.00;99.90;;;;;;5051681;28;20677;-75
2021/06/25 00:10:22;;;;;;;5.22;4.00;;;17.90;99.90;;;;;;5051533;28;20288;-75
2021/06/25 00:12:51;;;;;;;4.07;3.63;;;17.90;99.90;;;;;;5051275;28;20214;-75
2021/06/25 00:15:18;;;;;;;3.85;3.53;;;17.90;99.90;;;;;;5051470;28;20214;-75
2021/06/25 00:17:45;;;;;;;4.55;4.00;;;17.80;99.90;;;;;;5051507;28;20206;-75
2021/06/25 00:20:14;;;;;;;5.78;3.45;;;17.80;99.90;;;;;;5051608;28;20214;-75
2021/06/25 00:22:42;;;;;;;4.93;4.13;;;17.80;99.90;;;;;;5050683;28;20322;-77
2021/06/25 00:25:09;;;;;;;4.25;3.85;;;17.80;99.90;;;;;;5051201;28;20202;-75
2021/06/25 00:27:36;;;;;;;4.82;3.65;;;17.80;99.90;;;;;;5050698;28;20584;-74
2021/06/25 00:30:06;;;;;;;4.32;3.92;;;17.80;99.90;;;;;;5051971;28;20229;-78
2021/06/25 00:32:33;;;;;;;4.25;3.95;;;17.70;99.90;;;;;;5051312;28;20211;-75
2021/06/25 00:35:01;;;;;;;4.72;3.50;;;17.60;99.90;;;;;;5051736;28;20260;-74
2021/06/25 00:37:28;;;;;;;3.72;3.42;;;17.50;99.90;;;;;;5051407;28;20218;-75
2021/06/25 00:39:55;;;;;;;5.22;4.00;;;17.50;99.90;;;;;;5050873;28;20616;-72
2021/06/25 00:42:22;;;;;;;4.70;4.30;;;17.50;99.90;;;;;;5051238;28;20230;-75
2021/06/25 00:44:49;;;;;;;4.07;3.70;;;17.40;99.90;;;;;;5050648;28;20210;-76
2021/06/25 00:47:17;;;;;;;3.97;3.63;;;17.30;99.90;;;;;;5051173;28;20202;-73
2021/06/25 00:49:44;;;;;;;4.97;4.03;;;17.30;99.90;;;;;;5050701;28;20215;-75
2021/06/25 00:52:17;;;;;;;4.68;4.15;;;17.20;99.90;;;;;;5042145;28;20314;-74
2021/06/25 00:54:44;;;;;;;4.40;3.85;;;17.20;99.90;;;;;;5043420;28;20226;-73
2021/06/25 00:57:13;;;;;;;4.00;3.70;;;17.20;99.90;;;;;;5050487;28;20211;-72
2021/06/25 00:59:40;;;;;;;5.32;4.22;;;17.20;99.90;;;;;;5050494;28;20211;-73
2021/06/25 01:02:08;;;;;;;6.80;3.72;;;17.30;99.90;;;;;;5050300;28;20227;-72
2021/06/25 01:04:36;;;;;;;4.53;4.13;;;17.30;99.90;;;;;;5050735;28;20739;-74
2021/06/25 01:07:05;;;;;;;3.92;3.63;;;17.30;99.90;;;;;;5050441;28;20285;-74
2021/06/25 01:09:36;;;;;;;5.07;4.47;;;17.30;99.90;;;;;;5049635;28;20272;-74
2021/06/25 01:12:04;;;;;;;9.05;4.75;;;17.20;99.90;;;;;;5050411;28;20641;-74
2021/06/25 01:14:32;;;;;;;4.25;3.85;;;17.30;99.90;;;;;;5050986;28;20296;-74
2021/06/25 01:17:00;;;;;;;7.25;4.32;;;17.20;99.90;;;;;;5049609;28;20298;-74
2021/06/25 01:19:27;;;;;;;5.15;4.65;;;17.20;99.90;;;;;;5050353;28;20265;-72
2021/06/25 01:21:55;;;;;;;4.10;3.80;;;17.30;99.90;;;;;;5049819;28;20210;-73
2021/06/25 01:24:22;;;;;;;4.57;3.83;;;17.40;99.90;;;;;;5050325;28;20244;-73
2021/06/25 01:26:49;;;;;;;5.28;4.88;;;17.40;99.90;;;;;;5050244;28;20207;-73
2021/06/25 01:29:18;;;;;;;5.10;4.60;;;17.50;99.90;;;;;;5050442;28;20261;-80
2021/06/25 01:31:46;;;;;;;5.30;4.82;;;17.50;99.90;;;;;;5049631;28;20210;-73
2021/06/25 01:34:13;;;;;;;4.38;4.00;;;17.40;99.90;;;;;;5050064;28;20206;-74
2021/06/25 01:36:40;;;;;;;5.82;4.63;;;17.40;99.90;;;;;;5050019;28;20812;-74
2021/06/25 01:39:08;;;;;;;4.72;4.32;;;17.40;99.90;;;;;;5049897;28;20748;-73
2021/06/25 01:41:38;;;;;;;4.18;3.88;;;17.40;99.90;;;;;;5049231;28;20264;-75
2021/06/25 01:44:06;;;;;;;4.55;3.80;;;17.40;99.90;;;;;;5049777;28;20320;-72
2021/06/25 01:46:34;;;;;;;4.95;4.55;;;17.40;99.90;;;;;;5050364;28;20325;-72
2021/06/25 01:49:01;;;;;;;8.07;4.97;;;17.40;99.90;;;;;;5050737;28;20219;-73
2021/06/25 01:51:28;;;;;;;5.38;4.95;;;17.40;99.90;;;;;;5050275;28;20276;-73
2021/06/25 01:53:55;;;;;;;5.65;4.65;;;17.50;99.90;;;;;;5049624;28;20253;-74
2021/06/25 01:56:24;;;;;;;4.85;4.43;;;17.50;99.90;;;;;;5050475;28;20253;-73
2021/06/25 01:58:51;;;;;;;3.47;3.17;;;17.50;99.90;;;;;;5049393;28;20242;-74
2021/06/25 02:01:18;;;;;;;5.47;3.83;;;17.60;99.90;;;;;;5049876;28;20199;-74
2021/06/25 02:03:47;;;;;;;4.10;3.70;;;17.60;99.90;;;;;;5049363;28;20230;-76
2021/06/25 02:06:15;;;;;;;6.25;4.63;;;17.60;99.90;;;;;;5052098;28;20248;-73
2021/06/25 02:08:44;;;;;;;5.55;4.60;;;17.40;99.90;;;;;;5053875;28;20351;-74
2021/06/25 02:11:13;;;;;;;5.80;4.88;;;17.30;99.90;;;;;;5053625;28;20618;-73
2021/06/25 02:13:42;;;;;;;4.40;4.00;;;17.20;99.90;;;;;;5053740;28;20268;-75
2021/06/25 02:16:10;;;;;;;4.95;4.22;;;17.20;99.90;;;;;;5053262;28;20739;-75
2021/06/25 02:18:37;;;;;;;4.57;4.18;;;17.10;99.90;;;;;;5053757;28;20207;-75
2021/06/25 02:21:05;;;;;;;5.20;4.70;;;17.00;99.90;;;;;;5054147;28;20256;-75
2021/06/25 02:23:32;;;;;;;4.82;4.38;;;17.10;99.90;;;;;;5054079;28;20231;-75
2021/06/25 02:25:59;;;;;;;4.72;4.30;;;17.00;99.90;;;;;;5053279;28;20211;-75
2021/06/25 02:28:27;;;;;;;6.43;5.05;;;17.00;99.90;;;;;;5053806;28;20292;-74
2021/06/25 02:30:55;;;;;;;6.60;4.75;;;17.00;99.90;;;;;;5052980;28;20632;-75
2021/06/25 02:33:23;;;;;;;4.72;4.10;;;17.00;99.90;;;;;;5053174;28;20214;-75
2021/06/25 02:35:50;;;;;;;5.15;4.75;;;16.90;99.90;;;;;;5053155;28;20207;-74
2021/06/25 02:38:17;;;;;;;5.22;4.45;;;16.90;99.90;;;;;;5053553;28;20256;-74
2021/06/25 02:40:44;;;;;;;5.18;4.72;;;16.90;99.90;;;;;;5053191;28;20207;-74
2021/06/25 02:43:11;;;;;;;5.82;4.80;;;16.90;99.90;;;;;;5053006;28;20234;-74
2021/06/25 02:45:38;;;;;;;4.70;4.30;;;16.80;99.90;;;;;;5053281;28;20203;-75
2021/06/25 02:48:07;;;;;;;5.72;5.13;;;16.80;99.90;;;;;;5053091;28;20740;-74
2021/06/25 02:50:34;;;;;;;5.32;4.82;;;16.70;99.90;;;;;;5053557;28;20207;-74
2021/06/25 02:53:01;;;;;;;4.93;4.50;;;16.80;99.90;;;;;;5053401;28;20253;-75
2021/06/25 02:55:28;;;;;;;10.25;5.15;;;16.80;99.90;;;;;;5053032;28;20606;-76
2021/06/25 02:57:55;;;;;;;5.50;4.97;;;16.70;99.90;;;;;;5052807;28;20260;-79
2021/06/25 03:00:23;;;;;;;5.45;5.05;;;16.60;99.90;;;;;;5053089;28;20210;-76
2021/06/25 03:02:50;;;;;;;5.32;4.93;;;16.50;99.90;;;;;;5052553;28;20281;-76
2021/06/25 03:05:19;;;;;;;9.52;5.47;;;16.50;99.90;;;;;;5053037;28;20207;-75
2021/06/25 03:07:46;;;;;;;7.00;5.93;;;16.50;99.90;;;;;;5052623;28;20202;-75
2021/06/25 03:10:14;;;;;;;5.53;5.03;;;16.50;99.90;;;;;;5052891;28;20693;-75
2021/06/25 03:12:41;;;;;;;5.25;4.65;;;16.50;99.90;;;;;;5052400;28;20211;-75
2021/06/25 03:15:09;;;;;;;5.47;5.03;;;16.50;99.90;;;;;;5053022;28;20253;-75
2021/06/25 03:17:36;;;;;;;6.78;5.93;;;16.50;99.90;;;;;;5051357;28;20260;-73
2021/06/25 03:20:05;;;;;;;5.35;4.95;;;16.50;99.90;;;;;;5052953;28;20276;-73
2021/06/25 03:22:33;;;;;;;6.28;5.65;;;16.40;99.90;;;;;;5047106;28;20266;-75
2021/06/25 03:25:00;;;;;;;7.10;5.38;;;16.40;99.90;;;;;;5043132;28;20735;-74
2021/06/25 03:27:27;;;;;;;6.75;5.93;;;16.30;99.90;;;;;;5044690;28;20581;-74
2021/06/25 03:29:54;;;;;;;6.63;6.10;;;16.30;99.90;;;;;;5052321;28;20812;-73
2021/06/25 03:32:21;;;;;;;5.90;5.38;;;16.30;99.90;;;;;;5052335;28;20206;-73
2021/06/25 03:34:48;;;;;;;6.85;6.13;;;16.30;99.90;;;;;;5052141;28;20218;-73
2021/06/25 03:37:15;;;;;;;6.13;5.50;;;16.30;99.90;;;;;;5052044;28;20690;-73
2021/06/25 03:39:44;;;;;;;6.30;5.70;;;16.20;99.90;;;;;;5048946;28;20203;-76
2021/06/25 03:42:11;;;;;;;5.65;5.15;;;16.20;99.90;;;;;;5052031;28;20280;-76
2021/06/25 03:44:38;;;;;;;7.55;5.22;;;16.10;99.90;;;;;;5051363;28;20709;-74
2021/06/25 03:47:05;;;;;;;8.68;5.53;;;16.00;99.90;;;;;;5051990;28;20210;-74
2021/06/25 03:49:32;;;;;;;5.45;4.93;;;16.00;99.90;;;;;;5047662;28;20261;-74
2021/06/25 03:51:59;;;;;;;5.78;5.28;;;15.90;99.90;;;;;;5051821;28;20226;-73
2021/06/25 03:54:26;;;;;;;11.25;5.57;;;15.90;99.90;;;;;;5052452;28;20203;-73
2021/06/25 03:56:55;;;;;;;6.70;6.10;;;15.90;99.90;;;;;;5051278;28;20670;-74
2021/06/25 03:59:22;;;;;;;6.95;5.10;;;15.90;99.90;;;;;;5052149;28;20215;-77
2021/06/25 04:01:49;;;;;;;7.03;6.05;;;15.90;99.90;;;;;;5051522;28;20629;-74
2021/06/25 04:04:16;;;;;;;6.90;6.15;;;15.80;99.90;;;;;;5051709;28;20718;-74
2021/06/25 04:06:43;;;;;;;7.45;6.78;;;15.80;99.90;;;;;;5051632;28;20215;-74
2021/06/25 04:09:10;;;;;;;6.88;6.20;;;15.80;99.90;;;;;;5051641;28;20214;-74
2021/06/25 04:11:37;;;;;;;8.50;5.95;;;15.70;99.90;;;;;;5051267;28;20207;-74
2021/06/25 04:14:05;;;;;;;7.03;6.32;;;15.70;99.90;;;;;;5051959;28;20206;-74
2021/06/25 04:16:32;;;;;;;6.97;6.28;;;15.70;99.90;;;;;;5051931;28;20207;-74
2021/06/25 04:18:59;;;;;;;7.55;5.75;;;15.70;99.90;;;;;;5050974;28;20206;-74
2021/06/25 04:21:26;;;;;;;7.18;6.22;;;15.70;99.90;;;;;;5051398;28;20210;-74
2021/06/25 04:23:53;;;;;;;6.88;6.18;;;15.60;99.90;;;;;;5050974;28;20223;-74
2021/06/25 04:26:21;;;;;;;7.88;7.18;;;15.60;99.90;;;;;;5051333;28;20268;-75
2021/06/25 04:28:48;;;;;;;7.18;6.57;;;15.70;99.90;;;;;;5050313;28;20257;-75
2021/06/25 04:31:16;;;;;;;10.35;6.90;;;15.70;99.90;;;;;;5050749;28;20245;-75
2021/06/25 04:33:43;;;;;;;11.55;6.85;;;15.60;99.90;;;;;;5051328;28;20215;-81
2021/06/25 04:36:10;;;;;;;8.43;6.30;;;15.60;99.90;;;;;;5051322;28;20210;-72
2021/06/25 04:38:37;;;;;;;8.70;6.88;;;15.60;99.90;;;;;;5051217;28;20207;-77
2021/06/25 04:41:04;;;;;;;8.05;6.20;;;15.50;99.90;;;;;;5051119;28;20207;-71
2021/06/25 04:43:32;;;;;;;7.28;6.50;;;15.50;99.90;;;;;;5051455;28;20284;-72
2021/06/25 04:45:59;;;;;;;6.85;6.18;;;15.60;99.90;;;;;;5050329;28;20728;-73
2021/06/25 04:48:28;;;;;;;8.55;7.10;;;15.70;99.90;;;;;;5051399;28;20590;-73
2021/06/25 04:50:55;;;;;;;7.65;6.53;;;15.70;99.90;;;;;;5050519;28;20516;-78
2021/06/25 04:53:22;;;;;;;10.23;7.63;;;15.70;99.90;;;;;;5049495;28;20210;-73
2021/06/25 04:55:49;;;;;;;7.95;6.90;;;15.70;99.90;;;;;;5049129;28;20214;-73
2021/06/25 04:58:17;;;;;;;7.13;6.40;;;15.70;99.90;;;;;;5050758;28;20264;-74
2021/06/25 05:00:45;;;;;;;7.57;6.97;;;15.70;99.90;;;;;;5049829;28;20280;-73
2021/06/25 05:03:12;;;;;;;7.82;7.03;;;15.90;99.90;;;;;;5051032;28;20340;-73
2021/06/25 05:05:42;;;;;;;10.68;7.60;;;15.90;99.90;;;;;;5050047;28;20670;-74
2021/06/25 05:08:10;;;;;;;9.82;7.05;;;15.90;99.90;;;;;;5050424;28;20207;-74
2021/06/25 05:10:38;;;;;;;10.73;8.68;;;16.00;99.90;;;;;;5050250;28;20211;-74
2021/06/25 05:13:05;;;;;;;8.77;7.90;;;16.00;99.90;;;;;;5050625;28;20252;-75
2021/06/25 05:15:32;;;;;;;10.38;8.80;;;16.00;99.90;;;;;;5050637;28;20593;-76
2021/06/25 05:18:11;;;;;;;10.60;9.50;;;16.10;99.90;;;;;;5050883;28;20260;-75
2021/06/25 05:20:38;;;;;;;8.23;7.43;;;16.00;99.90;;;;;;5049512;28;20206;-84
2021/06/25 05:23:06;;;;;;;9.88;7.60;;;16.00;99.90;;;;;;5050169;28;20203;-74
2021/06/25 05:25:33;;;;;;;9.05;7.93;;;16.00;99.90;;;;;;5050801;28;20368;-78
2021/06/25 05:28:00;;;;;;;14.55;9.35;;;16.10;99.90;;;;;;5051325;28;20206;-73
2021/06/25 05:30:27;;;;;;;14.35;9.52;;;16.20;99.90;;;;;;5050677;28;20264;-71
2021/06/25 05:32:54;;;;;;;10.75;9.63;;;16.20;99.90;;;;;;5047823;28;20693;-77
2021/06/25 05:35:21;;;;;;;10.38;9.38;;;16.30;99.90;;;;;;5050165;28;20666;-73
2021/06/25 05:37:48;;;;;;;10.20;9.15;;;16.30;99.90;;;;;;5050269;28;20659;-84
2021/06/25 05:40:17;;;;;;;10.82;9.73;;;16.40;99.90;;;;;;5050903;28;20637;-86
2021/06/25 05:42:44;;;;;;;12.95;9.45;;;16.50;99.90;;;;;;5054848;28;20254;-84
2021/06/25 05:45:12;;;;;;;13.85;9.77;;;16.60;99.90;;;;;;5054577;28;20227;-87
2021/06/25 05:47:39;;;;;;;9.95;9.05;;;16.60;99.90;;;;;;5054293;28;20261;-72
2021/06/25 05:50:07;;;;;;;10.43;8.85;;;16.70;99.90;;;;;;5044620;28;20207;-72
2021/06/25 05:52:34;;;;;;;12.00;10.75;;;16.80;99.90;;;;;;5054591;28;20666;-72
2021/06/25 05:55:01;;;;;;;11.40;8.40;;;16.80;99.90;;;;;;5054762;28;20206;-72
2021/06/25 05:57:30;;;;;;;8.50;7.60;;;16.90;99.90;;;;;;5054866;28;20280;-80
2021/06/25 05:59:57;;;;;;;9.68;8.30;;;17.00;99.90;;;;;;5054317;28;20206;-79
2021/06/25 06:02:24;;;;;;;10.30;8.50;;;17.00;99.90;;;;;;5054756;28;20290;-78
2021/06/25 06:04:51;;;;;;;9.35;8.43;;;17.10;99.90;;;;;;5053717;28;20234;-73
2021/06/25 06:07:18;;;;;;;9.15;8.32;;;17.20;99.90;;;;;;5053917;28;20207;-71
2021/06/25 06:09:45;;;;;;;9.85;7.68;;;17.30;99.90;;;;;;5054051;28;20302;-74
2021/06/25 06:12:12;;;;;;;9.10;7.13;;;17.40;99.90;;;;;;5053917;28;20280;-71
2021/06/25 06:14:40;;;;;;;8.40;6.20;;;17.40;99.90;;;;;;5054027;28;20199;-86
2021/06/25 06:17:08;;;;;;;14.32;7.30;;;17.50;99.90;;;;;;5053892;28;20663;-72
2021/06/25 06:19:43;;;;;;;7.55;6.85;;;17.60;99.90;;;;;;5053879;28;20207;-73
2021/06/25 06:33:21;;;;;;;7.43;6.72;;;18.10;99.90;;;;;;5054660;28;20309;-88
2021/06/25 06:35:49;;;;;;;9.80;6.97;;;18.30;99.90;;;;;;5053520;28;20211;-87
2021/06/25 06:38:16;;;;;;;10.05;7.13;;;18.40;99.90;;;;;;5054531;28;20207;-86
2021/06/25 06:40:44;;;;;;;10.50;7.60;;;18.50;99.90;;;;;;5053700;28;20288;-71
2021/06/25 06:43:12;;;;;;;8.40;6.20;;;18.50;99.90;;;;;;5053655;28;20265;-71
2021/06/25 06:45:40;;;;;;;6.97;5.90;;;18.50;99.90;;;;;;5053550;28;20234;-83
2021/06/25 06:48:08;;;;;;;12.63;6.65;;;18.60;99.90;;;;;;5049075;28;20199;-73
2021/06/25 06:50:35;;;;;;;6.75;6.15;;;18.60;99.90;;;;;;5052742;28;20211;-72
2021/06/25 06:53:03;;;;;;;8.18;6.03;;;18.70;99.90;;;;;;5052201;28;20214;-74
2021/06/25 06:55:30;;;;;;;7.05;5.22;;;18.80;99.90;;;;;;5053495;28;20675;-74
2021/06/25 06:57:57;;;;;;;6.90;5.90;;;18.90;99.90;;;;;;5053230;28;20214;-73
2021/06/25 07:00:25;;;;;;;5.63;5.13;;;19.00;99.90;;;;;;5053333;28;20211;-73
2021/06/25 07:02:53;;;;;;;5.38;4.57;;;17.90;99.90;;;;;;5052770;28;20207;-73
2021/06/25 07:05:20;;;;;;;6.55;4.60;;;;;;;;;;5052629;28;20321;-81
2021/06/25 07:07:47;;;;;;;4.88;4.47;;;19.20;99.90;;;;;;5052914;28;20203;-73
2021/06/25 07:10:17;;;;;;;4.32;3.92;;;19.20;99.90;;;;;;5049941;28;20253;-80
2021/06/25 07:12:44;;;;;;;5.68;4.82;;;20.40;99.90;;;;;;5050284;28;20210;-85
2021/06/25 07:15:12;;;;;;;4.65;4.25;;;;;;;;;;5052963;28;20227;-81
2021/06/25 07:17:39;;;;;;;5.03;3.83;;;19.60;99.90;;;;;;5052076;28;20666;-88
2021/06/25 07:20:09;;;;;;;4.45;4.05;;;19.60;99.90;;;;;;5050461;28;20211;-84
2021/06/25 07:22:36;;;;;;;5.35;4.25;;;19.60;99.90;;;;;;5050611;28;20622;-86
2021/06/25 07:25:04;;;;;;;4.80;4.38;;;19.90;99.90;;;;;;5053912;28;20717;-89
2021/06/25 07:27:31;;;;;;;3.95;3.38;;;20.00;99.90;;;;;;5051981;28;20207;-79
2021/06/25 07:29:58;;;;;;;5.22;4.45;;;20.30;99.90;;;;;;5052181;28;20206;-79
2021/06/25 07:32:27;;;;;;;4.95;4.18;;;19.90;99.90;;;;;;5048900;28;20210;-80
2021/06/25 07:34:54;;;;;;;4.18;3.60;;;20.20;99.90;;;;;;5052616;28;20203;-82
2021/06/25 07:37:23;;;;;;;5.63;3.67;;;20.30;99.90;;;;;;5052733;28;20203;-80
2021/06/25 07:39:50;;;;;;;5.68;4.43;;;20.30;99.90;;;;;;5046814;28;20204;-75
2021/06/25 07:42:17;;;;;;;4.93;4.50;;;20.20;99.90;;;;;;5036067;28;20207;-77
2021/06/25 07:44:44;;;;;;;6.47;4.35;;;23.10;99.90;;;;;;5050405;28;20280;-77
2021/06/25 07:47:11;;;;;;;4.90;4.50;;;24.20;99.90;;;;;;5046050;28;20234;-78
2021/06/25 07:49:38;;;;;;;6.38;5.25;;;23.20;99.90;;;;;;5050915;28;20218;-80
2021/06/25 07:52:05;;;;;;;6.03;3.78;;;25.90;99.90;;;;;;5051747;28;20207;-77
2021/06/25 07:54:34;;;;;;;6.00;4.43;;;24.10;99.90;;;;;;5052501;28;20329;-77
2021/06/25 07:57:01;;;;;;;5.45;3.88;;;23.60;99.90;;;;;;5052087;28;20658;-87
2021/06/25 07:59:30;;;;;;;7.80;4.30;;;25.00;99.90;;;;;;5052356;28;20203;-93
2021/06/25 08:01:59;;;;;;;4.93;4.40;;;25.00;99.90;;;;;;5054008;28;20626;-86
2021/06/25 08:04:28;;;;;;;4.82;4.20;;;24.60;99.90;;;;;;5053409;28;20660;-82
2021/06/25 08:06:55;;;;;;;4.55;3.75;;;25.00;99.90;;;;;;5047704;28;20206;-80
2021/06/25 08:09:22;;;;;;;3.50;3.20;;;22.60;99.90;;;;;;5052651;28;20207;-85
2021/06/25 08:11:51;;;;;;;3.88;3.22;;;22.40;99.90;;;;;;5052557;28;20296;-85
2021/06/25 08:14:18;;;;;;;3.88;3.55;;;22.90;99.90;;;;;;5051567;28;20202;-81
2021/06/25 08:16:45;;;;;;;6.05;4.90;;;22.90;99.90;;;;;;5051194;28;20207;-77
2021/06/25 08:19:12;;;;;;;6.15;5.25;;;23.70;99.90;;;;;;5046676;28;20206;-78
2021/06/25 08:21:41;;;;;;;5.15;4.75;;;24.20;99.90;;;;;;5046197;28;20696;-89
2021/06/25 08:24:09;;;;;;;5.50;4.22;;;24.30;99.90;;;;;;5047661;28;20205;-78
2021/06/25 08:26:36;;;;;;;6.18;4.63;;;23.60;99.90;;;;;;5051045;28;20272;-77
2021/06/25 08:29:04;;;;;;;6.18;4.63;;;24.20;99.90;;;;;;5048897;28;20207;-87
2021/06/25 08:31:31;;;;;;;5.47;4.93;;;23.10;99.90;;;;;;5052144;28;20203;-90
2021/06/25 08:33:58;;;;;;;3.80;3.42;;;22.40;99.90;;;;;;5050167;28;20294;-79
2021/06/25 08:36:27;;;;;;;5.68;4.43;;;22.50;99.90;;;;;;5050810;28;20265;-79
2021/06/25 08:38:54;;;;;;;4.30;3.70;;;22.70;99.90;;;;;;5050006;28;20693;-81
2021/06/25 08:41:22;;;;;;;4.38;3.60;;;23.40;99.90;;;;;;5045521;28;20210;-82
2021/06/25 08:43:48;;;;;;;3.58;3.10;;;23.70;99.90;;;;;;5050275;28;20215;-76
2021/06/25 08:46:18;;;;;;;4.13;3.60;;;23.60;99.90;;;;;;5048976;28;21001;-81
2021/06/25 08:48:46;;;;;;;3.88;3.25;;;23.50;99.90;;;;;;5040337;28;20298;-77
2021/06/25 08:51:13;;;;;;;3.60;3.30;;;23.70;99.90;;;;;;5049876;28;20286;-89
2021/06/25 08:53:40;;;;;;;7.35;4.28;;;23.80;99.90;;;;;;5047384;28;20203;-73
2021/06/25 08:56:07;;;;;;;6.43;4.15;;;23.20;99.90;;;;;;5051587;28;20207;-81
2021/06/25 08:58:34;;;;;;;5.15;3.50;;;22.70;99.90;;;;;;5051604;28;20207;-72
2021/06/25 09:01:02;;;;;;;4.05;3.65;;;22.80;99.90;;;;;;5050695;28;20736;-72
2021/06/25 09:03:33;;;;;;;4.78;4.38;;;22.30;99.90;;;;;;5044272;28;20210;-73
2021/06/25 09:06:11;;;;;;;4.15;3.70;;;22.20;99.90;;;;;;5042665;28;20351;-72
2021/06/25 09:08:38;;;;;;;3.20;2.85;;;22.00;99.90;;;;;;5036009;28;20208;-77
2021/06/25 09:11:19;;;;;;;5.45;2.75;;;23.80;99.90;;;;;;5048622;28;20248;-70
2021/06/25 09:13:46;;;;;;;4.05;3.75;;;27.00;99.90;;;;;;5049125;28;20569;-73
2021/06/25 09:16:21;;;;;;;4.90;3.40;;;27.50;99.90;;;;;;5048193;28;20623;-89
2021/06/25 09:19:01;;;;;;;3.75;3.30;;;27.70;99.90;;;;;;5050475;28;20238;-90
2021/06/25 09:21:31;;;;;;;3.85;3.55;;;28.10;99.90;;;;;;5050815;28;20269;-87
2021/06/25 09:24:00;;;;;;;5.70;4.05;;;26.80;99.90;;;;;;5050121;28;20215;-81
2021/06/25 09:26:32;;;;;;;4.10;3.80;;;25.70;99.90;;;;;;5050435;28;20230;-82
2021/06/25 09:29:13;;;;;;;3.97;3.67;;;25.10;99.90;;;;;;5047825;28;20256;-84
2021/06/25 09:31:40;;;;;;;3.47;3.17;;;24.20;99.90;;;;;;5044451;28;20211;-70
2021/06/25 09:34:10;;;;;;;3.90;3.60;;;24.00;99.90;;;;;;5047960;28;20202;-71
2021/06/25 09:36:39;;;;;;;2.63;2.28;;;23.80;99.90;;;;;;5043592;28;20290;-73
2021/06/25 09:39:09;;;;;;;5.57;4.05;;;23.50;99.90;;;;;;5044276;28;20285;-69
2021/06/25 09:41:37;;;;;;;4.28;3.92;;;23.30;99.90;;;;;;5049673;28;20252;-83
2021/06/25 09:44:08;;;;;;;4.55;4.13;;;23.60;99.90;;;;;;5049920;28;20298;-71
2021/06/25 09:46:36;;;;;;;3.50;3.10;;;23.60;99.90;;;;;;5051036;28;20234;-73
2021/06/25 09:49:05;;;;;;;3.95;3.65;;;23.80;99.90;;;;;;5042350;28;20709;-77
2021/06/25 09:51:35;;;;;;;5.63;3.63;;;23.70;99.90;;;;;;5049561;28;20211;-72
2021/06/25 09:54:13;;;;;;;4.05;3.60;;;24.00;99.90;;;;;;5046256;28;20204;-72
2021/06/25 09:56:48;;;;;;;5.22;4.80;;;24.90;99.90;;;;;;5048670;28;20194;-73
2021/06/25 09:59:27;;;;;;;7.55;4.05;;;25.90;99.90;;;;;;5042147;28;20238;-72
2021/06/25 10:01:54;;;;;;;3.85;3.53;;;25.90;99.90;;;;;;5042783;28;20697;-76
2021/06/25 10:04:34;;;;;;;5.03;3.75;;;27.30;99.90;;;;;;5047381;28;20288;-76
2021/06/25 10:07:13;;;;;;;4.90;4.50;;;29.80;99.90;;;;;;5048337;28;20213;-76
2021/06/25 10:09:41;;;;;;;3.63;3.28;;;31.30;99.90;;;;;;5040409;28;20686;-76
2021/06/25 10:12:10;;;;;;;3.67;3.38;;;31.20;99.90;;;;;;5049367;28;20669;-78
2021/06/25 10:14:38;;;;;;;5.07;3.97;;;29.60;99.90;;;;;;5048345;28;20210;-75
2021/06/25 10:17:05;;;;;;;3.80;3.47;;;29.00;99.90;;;;;;5049912;28;20210;-75
2021/06/25 10:19:33;;;;;;;3.58;3.38;;;28.90;99.90;;;;;;5050485;28;20292;-75
2021/06/25 10:22:03;;;;;;;4.43;4.10;;;29.50;99.90;;;;;;5046181;28;20208;-78
2021/06/25 10:24:34;;;;;;;4.03;3.63;;;29.80;99.90;;;;;;5045293;28;20292;-79
2021/06/25 10:27:02;;;;;;;3.75;3.40;;;32.30;99.90;;;;;;5045551;28;20234;-77
2021/06/25 10:29:32;;;;;;;4.40;4.00;;;35.40;99.90;;;;;;5049827;28;20222;-76
2021/06/25 10:32:00;;;;;;;10.88;8.10;;;32.80;99.90;;;;;;5048552;28;20213;-78
2021/06/25 10:34:27;;;;;;;8.63;4.93;;;28.60;99.90;;;;;;5050241;28;20203;-78
2021/06/25 10:36:55;;;;;;;7.75;4.75;;;26.10;99.90;;;;;;5044180;28;20215;-78
2021/06/25 10:39:22;;;;;;;4.43;4.03;;;24.90;99.90;;;;;;5050708;28;20252;-80
2021/06/25 10:41:53;;;;;;;5.78;3.97;;;25.20;99.90;;;;;;5052843;28;20744;-79
2021/06/25 10:44:42;;;;;;;5.15;4.65;;;24.80;99.90;;;;;;5049965;28;20284;-79
2021/06/25 10:47:31;;;;;;;4.38;3.97;;;24.20;99.90;;;;;;5053119;28;20709;-79
2021/06/25 10:50:29;;;;;;;5.55;3.70;;;24.20;99.90;;;;;;5050532;28;20261;-79
2021/06/25 10:53:19;;;;;;;3.70;3.38;;;24.50;99.90;;;;;;5048176;28;20643;-77
2021/06/25 10:56:08;;;;;;;4.15;3.75;;;24.70;99.90;;;;;;5042647;28;20226;-73
2021/06/25 10:58:37;;;;;;;3.97;3.15;;;25.30;99.90;;;;;;5040054;28;20207;-73
2021/06/25 11:01:05;;;;;;;4.07;3.28;;;25.20;99.90;;;;;;5053260;28;20207;-73
2021/06/25 11:03:46;;;;;;;3.45;3.17;;;24.80;99.90;;;;;;5053171;28;20214;-77
2021/06/25 11:06:52;;;;;;;3.00;2.80;;;25.20;99.90;;;;;;5052808;28;20239;-72
2021/06/25 11:09:19;;;;;;;4.80;3.00;;;26.10;99.90;;;;;;4980788;28;20295;-72
2021/06/25 11:11:46;;;;;;;4.78;3.70;;;26.50;99.90;;;;;;5040382;28;20203;-71
2021/06/25 11:14:28;;;;;;;4.40;4.00;;;26.60;99.90;;;;;;5043689;28;20612;-74
2021/06/25 11:16:55;;;;;;;4.50;4.10;;;25.70;99.90;;;;;;5049667;28;20218;-74
2021/06/25 11:19:37;;;;;;;3.60;3.30;;;25.20;99.90;;;;;;5048669;28;20199;-72
2021/06/25 11:22:04;;;;;;;4.75;4.00;;;24.90;99.90;;;;;;5052614;28;20594;-71
2021/06/25 11:24:53;;;;;;;4.55;3.15;;;24.80;99.90;;;;;;5052480;28;20260;-73
2021/06/25 11:27:20;;;;;;;3.78;3.47;;;25.60;99.90;;;;;;5051821;28;20292;-74
2021/06/25 11:29:50;;;;;;;6.72;4.20;;;26.50;99.90;;;;;;5051921;28;20211;-77
2021/06/25 11:32:29;;;;;;;3.85;3.00;;;26.00;99.90;;;;;;5051610;28;20290;-78
2021/06/25 11:34:57;;;;;;;5.10;3.75;;;25.40;99.90;;;;;;5046401;28;20215;-72
2021/06/25 11:37:57;;;;;;;3.50;3.03;;;26.10;99.90;;;;;;5049152;28;20260;-73
2021/06/25 11:40:49;;;;;;;6.18;3.45;;;25.60;99.90;;;;;;5051430;28;20256;-76
2021/06/25 11:43:16;;;;;;;3.42;2.92;;;25.30;99.90;;;;;;5051889;28;20273;-76
2021/06/25 11:45:50;;;;;;;3.78;3.47;;;25.20;99.90;;;;;;5051853;28;20713;-75
2021/06/25 11:48:18;;;;;;;5.63;3.47;;;25.30;99.90;;;;;;5041052;28;20206;-72
2021/06/25 11:50:45;;;;;;;5.43;3.30;;;25.10;99.90;;;;;;5050994;28;20304;-77
2021/06/25 11:53:13;;;;;;;4.78;3.30;;;25.30;99.90;;;;;;5047469;28;20250;-79
2021/06/25 11:55:43;;;;;;;4.10;3.70;;;26.20;99.90;;;;;;5048628;28;20207;-74
2021/06/25 11:58:19;;;;;;;2.85;2.65;;;26.60;99.90;;;;;;5047192;28;20299;-83
2021/06/25 12:00:47;;;;;;;6.22;3.70;;;25.60;99.90;;;;;;5050382;28;20241;-80
2021/06/25 12:03:14;;;;;;;10.43;3.92;;;26.00;99.90;;;;;;5040463;28;20280;-79
2021/06/25 12:05:45;;;;;;;6.95;3.67;;;26.30;99.90;;;;;;5048210;28;20304;-79
2021/06/25 12:08:14;;;;;;;2.70;2.50;;;26.10;99.90;;;;;;5041860;28;20667;-81
2021/06/25 12:10:43;;;;;;;2.55;2.35;;;25.50;99.90;;;;;;5049178;28;20674;-83
2021/06/25 12:13:11;;;;;;;3.35;3.05;;;25.40;99.90;;;;;;5052127;28;20240;-85
2021/06/25 12:15:45;;;;;;;4.38;3.20;;;25.60;99.90;;;;;;5051530;28;20207;-84
2021/06/25 12:18:21;;;;;;;5.95;3.45;;;25.60;99.90;;;;;;5051686;28;20301;-83
2021/06/25 12:20:48;;;;;;;3.38;3.08;;;25.60;99.90;;;;;;5051633;28;20244;-82
2021/06/25 12:23:17;;;;;;;2.80;2.45;;;25.00;99.90;;;;;;5052153;28;20203;-90
2021/06/25 12:25:47;;;;;;;3.15;2.95;;;25.40;99.90;;;;;;5051439;28;20222;-89
2021/06/25 12:28:15;;;;;;;3.63;3.33;;;25.40;99.90;;;;;;5052346;28;20199;-78
2021/06/25 12:30:44;;;;;;;4.15;3.05;;;25.50;99.90;;;;;;5051387;28;20211;-78
2021/06/25 12:33:11;;;;;;;3.20;2.00;;;25.70;99.90;;;;;;5048775;28;20243;-78
2021/06/25 12:35:41;;;;;;;3.03;2.28;;;25.40;99.90;;;;;;5047319;28;20211;-78
2021/06/25 12:38:09;;;;;;;3.30;2.00;;;25.80;99.90;;;;;;5049824;28;20256;-75
2021/06/25 12:40:46;;;;;;;4.03;3.20;;;25.30;99.90;;;;;;5049874;28;20261;-78
2021/06/25 12:43:15;;;;;;;3.80;3.05;;;24.70;99.90;;;;;;5049981;28;20633;-81
2021/06/25 12:45:45;;;;;;;3.17;2.88;;;25.00;99.90;;;;;;5050604;28;20682;-83
2021/06/25 12:48:19;;;;;;;2.53;2.33;;;25.40;99.90;;;;;;5050576;28;20667;-79
2021/06/25 12:50:48;;;;;;;2.67;2.47;;;25.50;99.90;;;;;;5049631;28;20217;-78
2021/06/25 12:53:18;;;;;;;3.47;3.00;;;25.20;99.90;;;;;;5050381;28;20666;-80
2021/06/25 12:55:46;;;;;;;2.70;2.50;;;25.80;99.90;;;;;;5047392;28;20210;-81
2021/06/25 12:58:19;;;;;;;3.85;3.20;;;26.10;99.90;;;;;;5049944;28;20238;-88
2021/06/25 13:00:47;;;;;;;4.53;2.55;;;25.90;99.90;;;;;;5048098;28;20631;-87
2021/06/25 13:03:15;;;;;;;3.22;2.97;;;26.00;99.90;;;;;;5043274;28;20579;-82
2021/06/25 13:05:42;;;;;;;3.50;3.00;;;25.90;99.90;;;;;;5047244;28;20260;-86